To NAV CANADA Home Page Login to a new session Search on AWWS site Disclaimer Vers la page française équivalente Tips FAQ What's new on the site To the Forecasts and Observations / NOTAM section To "File a Flight Plan" website Publications and other links Update of the User's profile FIC Telephone Numbers My Weather Data Folder Route Weather Data Regional Weather Data Local Weather Data To the Forecasts and Observations / NOTAM section
Request Generated 06/25/2018 at 05:43:07 UTC . Weather information available at that time is displayed.

METAR/TAF

If you find any discrepancies between the coded METAR/TAF and the plain language METAR/TAF please use the coded METAR/TAF. LWIS bulletins are not decoded in plain language.

TORONTO/LESTER B. PEARSON INTL/ON    

METAR CYYZ 250500Z 36012KT 15SM SCT050 BKN075 15/12 A3006 RMK SC3AC4 SLP181 DENSITY ALT 600FT=
METAR
LOCATION
CYYZ - TORONTO/LESTER B. PEARSON INTL/ON
DATE - TIME
25 JUNE 2018 - 0500 UTC
WIND
360 TRUE @ 12  KNOTS
VISIBILITY
15 STAT.  MILES
RUNWAY VISUAL RANGE
WEATHER
CLOUDINESS
SCATTERED CLOUDS (3/8 - 4/8) 5000  FT
BROKEN CLOUDS (5/8 - 7/8) 7500  FT
TEMP / DEWPOINT
15 C / 12 C
ALTIMETER
30.06 IN HG
RECENT WEATHER
WIND SHEAR

METAR CYYZ 250400Z 35015KT 15SM FEW060 SCT075 15/12 A3004 RMK SC2AC2 SLP175 DENSITY ALT 600FT=
METAR
LOCATION
CYYZ - TORONTO/LESTER B. PEARSON INTL/ON
DATE - TIME
25 JUNE 2018 - 0400 UTC
WIND
350 TRUE @ 15  KNOTS
VISIBILITY
15 STAT.  MILES
RUNWAY VISUAL RANGE
WEATHER
CLOUDINESS
FEW CLOUDS (1/8 - 2/8) 6000  FT
SCATTERED CLOUDS (3/8 - 4/8) 7500  FT
TEMP / DEWPOINT
15 C / 12 C
ALTIMETER
30.04 IN HG
RECENT WEATHER
WIND SHEAR

METAR CYYZ 250300Z 35013KT 15SM SCT070 BKN100 17/12 A3001 RMK AC4AC3 SLP166 DENSITY ALT 800FT=
METAR
LOCATION
CYYZ - TORONTO/LESTER B. PEARSON INTL/ON
DATE - TIME
25 JUNE 2018 - 0300 UTC
WIND
350 TRUE @ 13  KNOTS
VISIBILITY
15 STAT.  MILES
RUNWAY VISUAL RANGE
WEATHER
CLOUDINESS
SCATTERED CLOUDS (3/8 - 4/8) 7000  FT
BROKEN CLOUDS (5/8 - 7/8) 10000  FT
TEMP / DEWPOINT
17 C / 12 C
ALTIMETER
30.01 IN HG
RECENT WEATHER
WIND SHEAR

TAF CYYZ 250538Z 2506/2612 36012KT P6SM SCT070 TEMPO 2506/2508 BKN070 FM251000 35012KT P6SM SCT050 BECMG 2511/2513 SKC FM252100 01008KT P6SM SKC BECMG 2600/2602 32003KT BECMG 2610/2612 VRB03KT RMK NXT FCST BY 250900Z=
TAF
LOCATION

CYYZ - TORONTO/LESTER B. PEARSON INTL/ON
VALIDITY [UTC]
25 JUN - 0538 to
26 JUN - 1200
 
TIMES
[UTC]
WIND
[DEGREES TRUE]
VISIBILITY
[STAT. MILES]
WEATHER
CLOUDINESS
[FEET AGL]
 
25 JUN - 0600 to
25 JUN - 1000
360 @ 12 KNOTS
6+
NIL
7000 SCATTERED
TEMPORARY CHANGES
25 JUN - 0600 to
25 JUN - 0800
 
 
 
7000 BROKEN
 
25 JUN - 1000 to
25 JUN - 2100
350 @ 12 KNOTS
6+
NIL
5000 SCATTERED
BECOMING
25 JUN - 1100 to
25 JUN - 1300
 
 
 
CLEAR SKY
 
25 JUN - 2100 to
26 JUN - 1200
10 @ 8 KNOTS
6+
NIL
CLEAR SKY
BECOMING
26 JUN - 0000 to
26 JUN - 0200
320 @ 3 KNOTS
 
 
 
BECOMING
26 JUN - 1000 to
26 JUN - 1200
VARIABLE @ 3 KNOTS
 
 
 
REMARKS
THE NEXT FORECAST WILL BE ISSUED BY 0900 UTC ON DAY 25


Your time UTC time
Weather data provided by Environment Canada and NAV CANADA